Time;durP1;ratioP1;P1;durP2;ratioP2;P2;SDS_P1;SDS_P2;PMS_P1;PMS_P2;Temp;Humidity;BMP_temperature;BMP_pressure;BME280_temperature;BME280_humidity;BME280_pressure;Samples;Min_cycle;Max_cycle;Signal;HPM_P1;HPM_P2
2020/12/12 00:00:13;;;;;;;51.25;11.05;;;8.10;99.90;;;;;;5067507;28;20024;-46
2020/12/12 00:02:39;;;;;;;58.70;9.77;;;8.00;99.90;;;;;;5067650;28;20385;-46
2020/12/12 00:05:05;;;;;;;62.80;10.00;;;8.00;99.90;;;;;;5067688;28;20541;-46
2020/12/12 00:07:31;;;;;;;43.80;8.45;;;8.00;99.90;;;;;;5067399;28;20454;-46
2020/12/12 00:09:56;;;;;;;39.35;9.02;;;7.90;99.90;;;;;;5067587;28;20628;-46
2020/12/12 00:12:22;;;;;;;58.55;7.95;;;7.90;99.90;;;;;;5067640;28;20060;-46
2020/12/12 00:14:48;;;;;;;40.58;8.70;;;7.90;99.90;;;;;;5049627;28;20036;-46
2020/12/12 00:17:32;;;;;;;60.63;9.32;;;7.80;99.90;;;;;;5067681;28;20497;-47
2020/12/12 00:20:16;;;;;;;41.75;7.88;;;7.70;99.90;;;;;;5067646;28;20067;-47
2020/12/12 00:23:00;;;;;;;41.72;8.30;;;7.60;99.90;;;;;;5051942;28;20562;-47
2020/12/12 00:25:25;;;;;;;45.22;8.02;;;7.50;99.90;;;;;;5067714;28;20044;-47
2020/12/12 00:27:51;;;;;;;40.40;7.82;;;7.40;99.90;;;;;;5067003;28;20038;-47
2020/12/12 00:30:17;;;;;;;47.38;7.90;;;7.30;99.90;;;;;;5067405;28;20037;-47
2020/12/12 00:32:42;;;;;;;30.88;7.05;;;7.30;99.90;;;;;;5067381;28;20068;-47
2020/12/12 00:35:08;;;;;;;38.60;6.68;;;7.20;99.90;;;;;;5067698;28;20032;-48
2020/12/12 00:37:33;;;;;;;39.75;6.55;;;7.20;99.90;;;;;;5049473;28;20036;-46
2020/12/12 00:39:59;;;;;;;37.25;6.95;;;7.20;99.90;;;;;;5067072;28;20459;-47
2020/12/12 00:42:25;;;;;;;45.60;6.95;;;7.20;99.90;;;;;;5066651;28;20510;-47
2020/12/12 00:44:50;;;;;;;41.38;6.63;;;7.10;99.90;;;;;;5065974;28;20032;-46
2020/12/12 00:47:16;;;;;;;39.22;6.28;;;7.00;99.90;;;;;;5066404;28;20032;-48
2020/12/12 00:49:42;;;;;;;44.70;6.45;;;6.90;99.90;;;;;;5066806;28;20043;-46
2020/12/12 00:52:07;;;;;;;31.10;5.90;;;6.90;99.90;;;;;;5067085;28;20293;-46
2020/12/12 00:54:36;;;;;;;31.05;6.30;;;6.90;99.90;;;;;;5069335;28;20564;-46
2020/12/12 00:57:02;;;;;;;55.85;6.55;;;6.80;99.90;;;;;;5067367;28;20037;-46
2020/12/12 00:59:30;;;;;;;28.13;6.47;;;6.70;99.90;;;;;;5066727;28;20051;-45
2020/12/12 01:01:56;;;;;;;36.13;6.90;;;6.60;99.90;;;;;;5072801;28;20123;-46
2020/12/12 01:04:22;;;;;;;36.72;6.07;;;6.60;99.90;;;;;;5070344;28;20510;-45
2020/12/12 01:06:48;;;;;;;44.50;7.30;;;6.60;99.90;;;;;;5071112;28;20661;-48
2020/12/12 01:09:14;;;;;;;37.33;7.03;;;6.50;99.90;;;;;;5070612;28;20051;-45
2020/12/12 01:11:40;;;;;;;34.45;6.35;;;6.50;99.90;;;;;;5071098;28;20060;-46
2020/12/12 01:14:06;;;;;;;39.33;6.70;;;6.40;99.90;;;;;;5070605;28;20036;-45
2020/12/12 01:16:32;;;;;;;44.45;7.70;;;6.40;99.90;;;;;;5071140;28;20394;-48
2020/12/12 01:18:58;;;;;;;38.45;6.88;;;6.40;99.90;;;;;;5070802;28;20448;-45
2020/12/12 01:21:25;;;;;;;34.30;7.60;;;6.40;99.90;;;;;;5070689;28;20060;-48
2020/12/12 01:23:50;;;;;;;34.95;7.38;;;6.40;99.90;;;;;;5071320;28;20058;-47
2020/12/12 01:26:16;;;;;;;21.95;6.22;;;6.30;99.90;;;;;;5070723;28;20160;-48
2020/12/12 01:28:42;;;;;;;44.38;7.28;;;6.30;99.90;;;;;;5070060;28;20461;-49
2020/12/12 01:31:12;;;;;;;39.28;7.88;;;6.30;99.90;;;;;;5070997;28;20462;-48
2020/12/12 01:33:43;;;;;;;31.30;7.18;;;6.20;99.90;;;;;;5070093;28;20482;-48
2020/12/12 01:36:09;;;;;;;22.48;6.85;;;6.40;99.90;;;;;;5070486;28;20078;-47
2020/12/12 01:38:36;;;;;;;38.28;8.10;;;6.30;99.90;;;;;;5070641;28;20382;-49
2020/12/12 01:41:02;;;;;;;39.05;7.78;;;6.30;99.90;;;;;;5052956;28;20031;-48
2020/12/12 01:43:27;;;;;;;33.25;7.70;;;6.30;99.90;;;;;;5070181;28;20389;-47
2020/12/12 01:45:56;;;;;;;39.97;7.93;;;6.30;99.90;;;;;;5070514;28;20032;-47
2020/12/12 01:48:22;;;;;;;38.42;9.00;;;6.30;99.90;;;;;;5070099;28;20079;-47
2020/12/12 01:50:49;;;;;;;31.13;8.30;;;6.20;99.90;;;;;;5070565;28;20067;-48
2020/12/12 01:53:18;;;;;;;39.53;10.27;;;6.20;99.90;;;;;;5070260;28;20029;-47
2020/12/12 01:55:48;;;;;;;30.83;7.65;;;6.10;99.90;;;;;;5069993;28;20032;-47
2020/12/12 01:58:15;;;;;;;27.90;8.07;;;6.10;99.90;;;;;;5069899;28;20510;-47
2020/12/12 02:00:41;;;;;;;27.02;7.82;;;6.10;99.90;;;;;;5070355;28;20036;-48
2020/12/12 02:03:10;;;;;;;40.55;8.57;;;6.00;99.90;;;;;;5069795;28;20037;-47
2020/12/12 02:05:40;;;;;;;32.78;8.18;;;6.00;99.90;;;;;;5070178;28;20114;-47
2020/12/12 02:08:11;;;;;;;47.10;9.02;;;6.00;99.90;;;;;;5069408;28;20461;-47
2020/12/12 02:10:40;;;;;;;43.75;8.95;;;6.10;99.90;;;;;;5069974;28;20094;-48
2020/12/12 02:13:07;;;;;;;32.20;7.88;;;6.10;99.90;;;;;;5068664;28;20458;-48
2020/12/12 02:15:33;;;;;;;42.83;9.43;;;6.10;99.90;;;;;;5051397;28;20029;-47
2020/12/12 02:18:00;;;;;;;27.02;8.02;;;6.10;99.90;;;;;;5069206;28;20029;-47
2020/12/12 02:20:25;;;;;;;39.90;7.78;;;6.10;99.90;;;;;;5050930;28;20029;-47
2020/12/12 02:22:51;;;;;;;37.65;9.05;;;6.10;99.90;;;;;;5069065;28;20062;-47
2020/12/12 02:25:17;;;;;;;30.88;8.38;;;6.10;99.90;;;;;;5069014;28;20043;-47
2020/12/12 02:27:43;;;;;;;30.95;7.63;;;6.10;99.90;;;;;;5069080;28;20052;-48
2020/12/12 02:30:08;;;;;;;42.70;10.23;;;6.10;99.90;;;;;;5069575;28;20044;-48
2020/12/12 02:32:34;;;;;;;34.90;8.90;;;6.20;99.90;;;;;;5070228;28;20028;-47
2020/12/12 02:35:03;;;;;;;43.33;10.55;;;6.40;99.90;;;;;;5070073;28;20039;-48
2020/12/12 02:37:29;;;;;;;41.35;9.27;;;6.40;99.90;;;;;;5052068;28;20120;-49
2020/12/12 02:39:54;;;;;;;36.97;10.63;;;6.40;99.90;;;;;;5070197;28;20170;-47
2020/12/12 02:42:20;;;;;;;49.95;11.82;;;6.50;99.90;;;;;;5070466;28;20103;-47
2020/12/12 02:44:50;;;;;;;51.67;11.27;;;6.70;99.90;;;;;;5069948;28;20035;-47
2020/12/12 02:47:16;;;;;;;32.97;9.05;;;6.70;99.90;;;;;;5087898;28;20046;-47
2020/12/12 02:49:42;;;;;;;48.47;10.65;;;6.70;99.90;;;;;;5089710;28;20044;-47
2020/12/12 02:52:08;;;;;;;46.53;10.23;;;6.60;99.90;;;;;;5091193;28;20482;-47
2020/12/12 02:54:33;;;;;;;45.55;10.63;;;6.70;99.90;;;;;;5090848;28;20035;-49
2020/12/12 02:56:59;;;;;;;61.83;15.70;;;6.70;99.90;;;;;;5090838;28;20060;-47
2020/12/12 02:59:24;;;;;;;43.15;14.00;;;7.00;99.90;;;;;;5090753;28;20415;-46
2020/12/12 03:01:50;;;;;;;60.70;15.18;;;7.20;99.90;;;;;;5091114;28;20259;-48
2020/12/12 03:04:16;;;;;;;64.82;17.10;;;7.60;99.90;;;;;;5086068;28;20028;-47
2020/12/12 03:06:44;;;;;;;59.50;16.52;;;7.70;99.90;;;;;;5088700;28;20028;-46
2020/12/12 03:09:10;;;;;;;52.60;16.48;;;7.90;99.90;;;;;;5090572;28;20142;-46
2020/12/12 03:11:36;;;;;;;47.85;15.45;;;8.00;99.90;;;;;;5090739;28;20050;-47
2020/12/12 03:14:21;;;;;;;50.65;16.08;;;8.10;99.90;;;;;;5090645;28;20088;-46
2020/12/12 03:17:09;;;;;;;62.33;18.10;;;8.10;99.90;;;;;;5090754;28;20043;-48
2020/12/12 03:19:37;;;;;;;50.45;15.93;;;8.20;99.90;;;;;;5090601;28;20036;-47
2020/12/12 03:22:04;;;;;;;53.40;16.00;;;8.20;99.90;;;;;;5090163;28;20052;-46
2020/12/12 03:24:30;;;;;;;58.67;18.38;;;8.30;99.90;;;;;;5089385;28;20035;-47
2020/12/12 03:26:55;;;;;;;55.65;17.67;;;8.30;99.90;;;;;;5090222;28;20038;-47
2020/12/12 03:29:21;;;;;;;57.67;19.85;;;8.30;99.90;;;;;;5090252;28;20371;-46
2020/12/12 03:31:47;;;;;;;52.25;19.50;;;8.30;99.90;;;;;;5090171;28;20039;-47
2020/12/12 03:34:12;;;;;;;57.90;20.70;;;8.30;99.90;;;;;;5090030;28;20053;-47
2020/12/12 03:36:38;;;;;;;61.38;20.75;;;8.30;99.90;;;;;;5090198;28;20123;-47
2020/12/12 03:39:03;;;;;;;65.47;21.83;;;8.30;99.90;;;;;;5090220;28;20024;-47
2020/12/12 03:41:29;;;;;;;56.35;22.30;;;8.30;99.90;;;;;;5090184;28;20741;-46
2020/12/12 03:43:55;;;;;;;69.55;23.52;;;8.20;99.90;;;;;;5071432;28;20474;-47
2020/12/12 03:46:20;;;;;;;64.85;24.50;;;8.20;99.90;;;;;;5089898;28;20039;-47
2020/12/12 03:48:46;;;;;;;63.92;24.13;;;8.20;99.90;;;;;;5089701;28;20047;-46
2020/12/12 03:51:12;;;;;;;72.82;23.75;;;8.20;99.90;;;;;;5089914;28;20040;-45
2020/12/12 03:53:37;;;;;;;73.18;22.63;;;8.10;99.90;;;;;;5089585;28;20135;-47
2020/12/12 03:56:03;;;;;;;74.75;23.38;;;8.10;99.90;;;;;;5071642;28;20537;-47
2020/12/12 03:58:29;;;;;;;89.45;23.83;;;8.10;99.90;;;;;;5089720;28;20583;-46
2020/12/12 04:00:55;;;;;;;79.82;24.17;;;8.00;99.90;;;;;;5089727;28;20035;-46
2020/12/12 04:03:21;;;;;;;82.10;23.63;;;8.00;99.90;;;;;;5089707;28;20032;-47
2020/12/12 04:05:47;;;;;;;72.00;24.67;;;8.00;99.90;;;;;;5089625;28;20047;-47
2020/12/12 04:08:13;;;;;;;80.10;26.25;;;8.00;99.90;;;;;;5089590;28;20044;-48
2020/12/12 04:10:38;;;;;;;81.07;25.85;;;8.00;99.90;;;;;;5089801;28;20036;-46
2020/12/12 04:13:04;;;;;;;73.55;25.17;;;8.00;99.90;;;;;;5089391;28;20036;-47
2020/12/12 04:15:30;;;;;;;59.67;21.88;;;8.00;99.90;;;;;;5089503;28;20032;-46
2020/12/12 04:17:55;;;;;;;68.65;22.23;;;7.90;99.90;;;;;;5089508;28;20032;-48
2020/12/12 04:20:21;;;;;;;72.28;23.65;;;8.00;99.90;;;;;;5088641;28;20052;-46
2020/12/12 04:22:47;;;;;;;71.63;26.75;;;7.90;99.90;;;;;;5070351;28;20044;-46
2020/12/12 04:25:12;;;;;;;71.57;23.20;;;7.90;99.90;;;;;;5087646;28;20043;-46
2020/12/12 04:27:38;;;;;;;61.13;22.30;;;7.90;99.90;;;;;;5088606;28;20023;-47
2020/12/12 04:30:05;;;;;;;59.20;21.38;;;7.90;99.90;;;;;;5088798;28;20062;-46
2020/12/12 04:32:30;;;;;;;55.17;22.20;;;7.90;99.90;;;;;;5089369;28;20089;-46
2020/12/12 04:34:56;;;;;;;60.50;21.40;;;7.90;99.90;;;;;;5088272;28;20040;-47
2020/12/12 04:37:22;;;;;;;61.75;21.40;;;7.80;99.90;;;;;;5089137;28;20036;-46
2020/12/12 04:39:47;;;;;;;66.40;23.80;;;7.80;99.90;;;;;;5089181;28;20040;-47
2020/12/12 04:42:15;;;;;;;69.60;23.80;;;7.80;99.90;;;;;;5089681;28;20042;-47
2020/12/12 04:44:42;;;;;;;75.68;25.90;;;7.80;99.90;;;;;;5089380;28;20036;-46
2020/12/12 04:47:09;;;;;;;80.95;26.92;;;7.80;99.90;;;;;;5089317;28;20028;-47
2020/12/12 04:49:34;;;;;;;81.38;26.23;;;7.80;99.90;;;;;;5089462;28;20071;-46
2020/12/12 04:52:04;;;;;;;74.38;27.73;;;7.80;99.90;;;;;;5089090;28;20169;-46
2020/12/12 04:54:35;;;;;;;62.28;23.15;;;7.80;99.90;;;;;;5089229;28;20020;-47
2020/12/12 04:57:03;;;;;;;60.83;23.08;;;7.70;99.90;;;;;;5086752;28;20407;-47
2020/12/12 04:59:34;;;;;;;61.85;23.55;;;7.80;99.90;;;;;;5069571;28;20062;-46
2020/12/12 05:02:03;;;;;;;67.75;23.55;;;7.80;99.90;;;;;;5087077;28;20040;-46
2020/12/12 05:04:29;;;;;;;59.50;23.13;;;7.80;99.90;;;;;;5079195;28;20063;-47
2020/12/12 05:06:55;;;;;;;58.88;23.50;;;7.80;99.90;;;;;;5068526;28;20446;-46
2020/12/12 05:09:21;;;;;;;62.15;21.15;;;7.80;99.90;;;;;;5068341;28;20451;-47
2020/12/12 05:11:48;;;;;;;49.58;18.50;;;7.80;99.90;;;;;;5068361;28;20032;-47
2020/12/12 05:14:15;;;;;;;42.78;19.02;;;7.80;99.90;;;;;;5076589;28;20467;-48
2020/12/12 05:16:44;;;;;;;41.58;18.45;;;7.70;99.90;;;;;;5087831;28;20060;-47
2020/12/12 05:19:09;;;;;;;45.20;16.42;;;7.70;99.90;;;;;;5087336;28;20020;-47
2020/12/12 05:21:45;;;;;;;48.30;18.70;;;7.70;99.90;;;;;;5086920;28;20754;-47
2020/12/12 05:24:11;;;;;;;46.05;17.83;;;7.70;99.90;;;;;;5086769;28;20098;-48
2020/12/12 05:26:37;;;;;;;47.25;17.33;;;7.70;99.90;;;;;;5087041;28;20047;-46
2020/12/12 05:29:04;;;;;;;51.35;20.58;;;7.80;99.90;;;;;;5087090;28;20056;-47
2020/12/12 05:31:30;;;;;;;46.22;19.65;;;7.80;99.90;;;;;;5052508;28;20040;-46
2020/12/12 05:33:56;;;;;;;50.95;19.05;;;7.80;99.90;;;;;;5088431;28;20523;-46
2020/12/12 05:36:29;;;;;;;49.78;19.00;;;7.80;99.90;;;;;;5088492;28;20491;-48
2020/12/12 05:38:58;;;;;;;51.30;19.67;;;7.80;99.90;;;;;;5088195;28;20058;-48
2020/12/12 05:41:26;;;;;;;53.47;19.58;;;7.80;99.90;;;;;;5088613;28;20703;-47
2020/12/12 05:43:52;;;;;;;44.35;17.45;;;7.80;99.90;;;;;;5088225;28;20158;-47
2020/12/12 05:46:40;;;;;;;51.45;18.08;;;7.80;99.90;;;;;;5088167;28;20107;-47
2020/12/12 05:49:06;;;;;;;56.97;19.33;;;7.80;99.90;;;;;;5067585;28;20044;-49
2020/12/12 05:51:32;;;;;;;43.25;17.70;;;7.80;99.90;;;;;;5070975;28;20036;-47
2020/12/12 05:53:59;;;;;;;43.08;16.52;;;7.70;99.90;;;;;;5070176;28;20037;-47
2020/12/12 05:56:26;;;;;;;45.03;16.77;;;7.80;99.90;;;;;;5074996;28;20397;-48
2020/12/12 05:58:54;;;;;;;56.28;18.10;;;7.90;99.90;;;;;;5090235;28;20036;-48
2020/12/12 06:01:21;;;;;;;52.38;17.90;;;7.90;99.90;;;;;;5088398;28;20032;-49
2020/12/12 06:04:00;;;;;;;43.00;15.55;;;8.00;99.90;;;;;;5081944;28;20032;-50
2020/12/12 06:06:26;;;;;;;49.65;16.75;;;8.00;99.90;;;;;;5090147;28;20031;-47
2020/12/12 06:09:00;;;;;;;46.80;16.63;;;8.00;99.90;;;;;;5071952;28;20029;-47
2020/12/12 06:11:28;;;;;;;45.80;15.07;;;8.10;99.90;;;;;;5070142;28;20036;-48
2020/12/12 06:13:59;;;;;;;41.65;15.52;;;8.10;99.90;;;;;;5051484;28;20035;-46
2020/12/12 06:16:29;;;;;;;42.47;15.98;;;8.10;99.90;;;;;;5069689;28;20087;-47
2020/12/12 06:19:13;;;;;;;41.30;13.60;;;8.10;99.90;;;;;;5072691;28;20028;-47
2020/12/12 06:21:43;;;;;;;57.40;14.75;;;8.00;99.90;;;;;;5089826;28;20519;-46
2020/12/12 06:24:12;;;;;;;50.45;13.52;;;8.00;99.90;;;;;;5089749;28;20040;-47
2020/12/12 06:27:17;;;;;;;44.50;12.98;;;8.00;99.90;;;;;;5089752;28;20044;-47
2020/12/12 06:29:47;;;;;;;36.22;11.98;;;8.10;99.90;;;;;;5006861;28;20076;-48
2020/12/12 06:32:14;;;;;;;38.28;12.02;;;8.10;99.90;;;;;;4989599;28;20088;-46
2020/12/12 06:34:51;;;;;;;45.22;13.90;;;8.10;99.90;;;;;;5049232;28;20048;-47
2020/12/12 06:37:29;;;;;;;33.15;12.35;;;8.10;99.90;;;;;;5089435;28;20088;-45
2020/12/12 06:39:55;;;;;;;41.95;15.15;;;8.10;99.90;;;;;;5089553;28;20028;-47
2020/12/12 06:42:35;;;;;;;43.97;15.77;;;8.10;99.90;;;;;;5089330;28;20074;-45
2020/12/12 06:45:03;;;;;;;55.45;15.60;;;8.10;99.90;;;;;;5089137;28;20464;-46
2020/12/12 06:47:38;;;;;;;47.22;15.85;;;8.20;99.90;;;;;;5088967;28;20056;-45
2020/12/12 06:50:08;;;;;;;50.83;15.95;;;8.20;99.90;;;;;;5088940;28;20067;-48
2020/12/12 06:52:34;;;;;;;47.75;15.77;;;8.30;99.90;;;;;;5089190;28;20036;-47
2020/12/12 06:55:08;;;;;;;53.35;16.30;;;8.30;99.90;;;;;;5083328;28;20030;-46
2020/12/12 06:57:39;;;;;;;42.38;14.88;;;8.40;99.90;;;;;;5076685;28;20094;-47
2020/12/12 07:00:08;;;;;;;46.85;14.43;;;8.50;99.90;;;;;;5068230;28;20133;-46
2020/12/12 07:02:34;;;;;;;48.47;13.98;;;8.40;99.90;;;;;;5060847;28;20139;-46
2020/12/12 07:05:22;;;;;;;47.28;15.88;;;8.40;99.90;;;;;;5087892;28;20135;-45
2020/12/12 07:07:48;;;;;;;47.13;14.55;;;8.40;99.90;;;;;;5080256;28;20032;-46
2020/12/12 07:10:14;;;;;;;52.05;13.35;;;8.50;99.90;;;;;;5085970;28;20032;-46
2020/12/12 07:12:40;;;;;;;50.10;13.00;;;8.50;99.90;;;;;;5079356;28;20389;-47
2020/12/12 07:15:05;;;;;;;45.70;12.80;;;8.40;99.90;;;;;;5087679;28;20036;-46
2020/12/12 07:17:33;;;;;;;31.23;10.65;;;8.40;99.90;;;;;;5082558;28;20504;-46
2020/12/12 07:20:00;;;;;;;38.25;11.95;;;8.50;99.90;;;;;;5085600;28;20035;-47
2020/12/12 07:22:30;;;;;;;34.10;11.82;;;8.40;99.90;;;;;;5081448;28;20052;-44
2020/12/12 07:24:58;;;;;;;31.42;10.55;;;8.40;99.90;;;;;;5083960;28;20109;-45
2020/12/12 07:27:24;;;;;;;35.80;9.45;;;8.50;99.90;;;;;;5085487;28;20545;-46
2020/12/12 07:29:50;;;;;;;28.83;8.95;;;8.40;99.90;;;;;;5084920;28;20040;-47
2020/12/12 07:32:16;;;;;;;32.65;9.88;;;8.40;99.90;;;;;;5085913;28;20131;-46
2020/12/12 07:34:42;;;;;;;29.02;8.30;;;8.40;99.90;;;;;;5067675;28;20028;-46
2020/12/12 07:37:10;;;;;;;37.28;9.05;;;8.40;99.90;;;;;;5083407;28;20028;-48
2020/12/12 07:39:38;;;;;;;22.60;8.30;;;8.40;99.90;;;;;;5080102;28;20123;-45
2020/12/12 07:42:05;;;;;;;27.65;8.70;;;8.40;99.90;;;;;;5083409;28;20028;-48
2020/12/12 07:44:32;;;;;;;25.95;8.98;;;8.30;99.90;;;;;;5084663;28;20139;-46
2020/12/12 07:46:59;;;;;;;26.58;7.68;;;8.30;99.90;;;;;;5084411;28;20589;-46
2020/12/12 07:49:25;;;;;;;22.63;7.65;;;8.30;99.90;;;;;;5084488;28;20159;-47
2020/12/12 07:51:59;;;;;;;23.98;7.63;;;8.20;99.90;;;;;;5085477;28;20099;-47
2020/12/12 07:54:31;;;;;;;42.67;7.70;;;8.20;99.90;;;;;;5084715;28;20077;-46
2020/12/12 07:56:56;;;;;;;24.13;7.78;;;8.10;99.90;;;;;;5082558;28;20035;-46
2020/12/12 07:59:22;;;;;;;25.50;7.70;;;8.10;99.90;;;;;;5064552;28;20357;-47
2020/12/12 08:01:51;;;;;;;24.50;7.03;;;8.10;99.90;;;;;;5081347;28;20054;-45
2020/12/12 08:04:18;;;;;;;27.35;7.55;;;8.10;99.90;;;;;;5075527;28;20043;-47
2020/12/12 08:06:48;;;;;;;20.88;6.72;;;8.10;99.90;;;;;;5065680;28;20368;-48
2020/12/12 08:09:22;;;;;;;24.65;7.22;;;8.10;99.90;;;;;;5075971;28;20127;-46
2020/12/12 08:11:58;;;;;;;20.48;6.05;;;8.10;99.90;;;;;;5072271;28;20036;-47
2020/12/12 08:14:25;;;;;;;19.50;6.05;;;8.20;99.90;;;;;;5069067;28;20434;-47
2020/12/12 08:16:59;;;;;;;20.80;5.60;;;8.30;99.90;;;;;;5063260;28;20028;-48
2020/12/12 08:19:25;;;;;;;;;;;8.40;99.90;;;;;;5081380;28;20540;-46
2020/12/12 08:22:10;;;;;;;20.48;5.55;;;8.50;99.90;;;;;;5079647;28;19923;-47
2020/12/12 08:24:36;;;;;;;28.75;6.03;;;8.60;99.90;;;;;;5050693;28;20028;-46
2020/12/12 08:27:09;;;;;;;15.15;6.40;;;8.60;99.90;;;;;;5065643;28;20034;-48
2020/12/12 08:29:55;;;;;;;24.33;5.60;;;8.70;99.90;;;;;;5064091;28;20072;-47
2020/12/12 08:32:40;;;;;;;16.55;5.25;;;8.70;99.90;;;;;;5068617;28;20332;-46
2020/12/12 08:35:13;;;;;;;13.43;5.65;;;8.80;99.90;;;;;;5064460;28;20494;-46
2020/12/12 08:37:40;;;;;;;15.93;5.72;;;8.80;99.90;;;;;;5064441;28;20469;-46
2020/12/12 08:40:10;;;;;;;18.13;5.05;;;8.80;99.90;;;;;;5064422;28;20086;-47
2020/12/12 08:42:36;;;;;;;12.85;5.20;;;8.80;99.90;;;;;;5077750;28;20047;-46
2020/12/12 08:45:15;;;;;;;14.15;5.60;;;8.90;99.90;;;;;;5082126;28;20032;-46
2020/12/12 08:47:41;;;;;;;14.57;5.57;;;8.90;99.90;;;;;;5080844;28;20020;-46
2020/12/12 08:50:07;;;;;;;13.95;5.00;;;9.00;99.90;;;;;;5085043;28;20032;-47
2020/12/12 08:52:32;;;;;;;15.45;5.60;;;9.00;99.90;;;;;;5062475;28;20467;-46
2020/12/12 08:55:03;;;;;;;19.50;6.30;;;9.00;99.90;;;;;;5083252;28;20036;-47
2020/12/12 08:57:29;;;;;;;16.27;5.53;;;9.00;99.90;;;;;;5077897;28;20033;-47
2020/12/12 09:00:03;;;;;;;15.63;5.18;;;9.00;99.90;;;;;;5062420;28;20883;-46
2020/12/12 09:02:29;;;;;;;13.77;5.45;;;9.10;99.90;;;;;;5071069;28;20130;-47
2020/12/12 09:05:11;;;;;;;11.68;4.68;;;9.10;99.90;;;;;;5073282;28;20542;-47
2020/12/12 09:07:38;;;;;;;15.70;5.70;;;9.10;99.90;;;;;;5066740;28;20441;-47
2020/12/12 09:10:14;;;;;;;22.50;5.70;;;9.10;99.90;;;;;;5065812;28;20044;-47
2020/12/12 09:12:47;;;;;;;15.32;5.18;;;9.10;99.90;;;;;;5073634;28;20024;-46
2020/12/12 09:15:13;;;;;;;14.93;4.97;;;9.10;99.90;;;;;;5062904;28;20025;-46
2020/12/12 09:17:39;;;;;;;9.93;4.63;;;9.10;99.90;;;;;;5067512;28;20048;-47
2020/12/12 09:20:07;;;;;;;13.65;5.30;;;9.20;99.90;;;;;;5072959;28;20024;-46
2020/12/12 09:22:33;;;;;;;12.25;5.55;;;9.20;99.90;;;;;;5074143;28;20075;-48
2020/12/12 09:25:02;;;;;;;12.32;4.75;;;9.20;99.90;;;;;;5081354;28;20047;-47
2020/12/12 09:27:28;;;;;;;12.50;4.80;;;9.10;99.90;;;;;;5078035;28;20036;-48
2020/12/12 09:29:54;;;;;;;16.08;4.68;;;9.20;99.90;;;;;;5081040;28;20559;-48
2020/12/12 09:32:19;;;;;;;9.43;4.68;;;9.10;99.90;;;;;;5084740;28;20032;-46
2020/12/12 09:34:45;;;;;;;13.50;4.70;;;9.10;99.90;;;;;;5080876;28;20029;-47
2020/12/12 09:37:11;;;;;;;9.77;4.85;;;9.20;99.90;;;;;;5069998;28;20029;-46
2020/12/12 09:39:37;;;;;;;13.70;4.32;;;9.20;99.90;;;;;;5069714;28;20462;-46
2020/12/12 09:42:03;;;;;;;17.35;6.13;;;9.20;99.90;;;;;;5071188;28;20036;-48
2020/12/12 09:44:30;;;;;;;10.65;4.70;;;9.30;99.90;;;;;;5052037;28;20047;-47
2020/12/12 09:46:56;;;;;;;22.05;4.82;;;9.30;99.90;;;;;;5071736;28;20028;-46
2020/12/12 09:49:23;;;;;;;10.10;4.65;;;9.40;99.90;;;;;;5063790;28;20462;-47
2020/12/12 09:51:49;;;;;;;9.98;3.72;;;9.50;99.90;;;;;;5077497;28;20037;-46
2020/12/12 09:54:15;;;;;;;8.10;3.90;;;9.70;99.90;;;;;;5069434;28;20021;-47
2020/12/12 09:56:40;;;;;;;10.38;4.43;;;9.80;99.90;;;;;;5072101;28;20150;-46
2020/12/12 09:59:06;;;;;;;6.57;3.25;;;9.90;99.90;;;;;;5077211;28;20028;-46
2020/12/12 10:01:32;;;;;;;7.68;3.28;;;9.90;99.90;;;;;;5068979;28;20139;-45
2020/12/12 10:03:57;;;;;;;6.18;2.97;;;10.00;99.90;;;;;;5069919;28;20033;-46
2020/12/12 10:06:23;;;;;;;6.40;2.72;;;10.10;99.90;;;;;;5081675;28;20071;-46
2020/12/12 10:08:49;;;;;;;9.60;2.53;;;10.10;99.90;;;;;;5089601;28;20091;-47
2020/12/12 10:11:14;;;;;;;8.55;3.45;;;10.10;99.90;;;;;;5083307;28;20036;-47
2020/12/12 10:13:40;;;;;;;5.57;2.38;;;10.10;99.90;;;;;;5068705;28;20025;-49
2020/12/12 10:16:06;;;;;;;5.18;2.88;;;10.00;99.90;;;;;;5068479;28;20046;-47
2020/12/12 10:18:33;;;;;;;10.63;3.40;;;10.00;99.90;;;;;;5068476;28;20043;-47
2020/12/12 10:20:59;;;;;;;3.80;2.40;;;9.90;99.90;;;;;;5077875;28;20053;-48
2020/12/12 10:23:25;;;;;;;6.00;3.38;;;9.80;99.90;;;;;;5076967;28;20090;-47
2020/12/12 10:25:51;;;;;;;5.20;2.72;;;9.90;99.90;;;;;;5085812;28;20093;-47
2020/12/12 10:28:18;;;;;;;4.55;2.25;;;9.90;99.90;;;;;;5076062;28;20049;-48
2020/12/12 10:30:43;;;;;;;7.50;2.45;;;10.00;99.90;;;;;;5079298;28;20656;-47
2020/12/12 10:33:09;;;;;;;3.78;2.50;;;10.00;99.90;;;;;;5087994;28;20024;-46
2020/12/12 10:35:35;;;;;;;7.22;2.63;;;9.90;99.90;;;;;;5069637;28;20050;-48
2020/12/12 10:38:01;;;;;;;7.25;2.90;;;10.00;99.90;;;;;;5081473;28;20051;-47
2020/12/12 10:42:54;;;;;;;5.90;2.38;;;10.10;99.90;;;;;;5070312;28;20737;-48
2020/12/12 10:45:19;;;;;;;4.70;2.13;;;10.10;99.90;;;;;;5071021;28;20115;-47
2020/12/12 10:47:52;;;;;;;6.22;1.98;;;10.10;99.90;;;;;;5087526;28;20437;-46
2020/12/12 10:50:17;;;;;;;7.43;2.00;;;10.20;99.90;;;;;;5086830;28;20078;-47
2020/12/12 10:52:43;;;;;;;8.10;2.33;;;10.20;99.90;;;;;;5083942;28;20064;-46
2020/12/12 10:55:09;;;;;;;5.47;1.67;;;10.10;99.90;;;;;;5087193;28;20047;-48
2020/12/12 10:57:34;;;;;;;4.65;2.30;;;10.10;99.90;;;;;;5087126;28;20303;-49
2020/12/12 11:00:02;;;;;;;7.03;1.70;;;10.10;99.90;;;;;;5086967;28;20038;-47
2020/12/12 11:02:29;;;;;;;6.28;1.80;;;10.20;99.90;;;;;;5087462;28;20083;-49
2020/12/12 11:04:56;;;;;;;6.75;1.90;;;10.20;99.90;;;;;;5070072;28;20103;-47
2020/12/12 11:07:22;;;;;;;4.00;1.65;;;10.10;99.90;;;;;;5087984;28;20493;-47
2020/12/12 11:09:47;;;;;;;6.28;1.63;;;10.10;99.90;;;;;;5087774;28;20040;-49
2020/12/12 11:12:16;;;;;;;3.13;1.23;;;10.20;99.90;;;;;;5087814;28;20112;-47
2020/12/12 11:14:46;;;;;;;3.03;1.08;;;10.10;99.90;;;;;;5085174;28;20044;-47
2020/12/12 11:17:11;;;;;;;5.80;1.70;;;10.20;99.90;;;;;;5088188;28;20115;-46
2020/12/12 11:19:37;;;;;;;4.80;1.65;;;10.10;99.90;;;;;;5087602;28;20174;-47
2020/12/12 11:22:03;;;;;;;5.28;1.77;;;10.10;99.90;;;;;;5088075;28;20056;-45
2020/12/12 11:24:28;;;;;;;5.88;1.70;;;10.20;99.90;;;;;;5088024;28;20799;-47
2020/12/12 11:27:00;;;;;;;8.90;1.80;;;10.20;99.90;;;;;;5088374;28;20454;-46
2020/12/12 11:29:26;;;;;;;5.22;1.30;;;10.20;99.90;;;;;;5088161;28;20051;-46
2020/12/12 11:31:53;;;;;;;5.68;1.77;;;10.40;99.90;;;;;;5088669;28;20043;-48
2020/12/12 11:34:27;;;;;;;3.65;1.30;;;10.50;99.90;;;;;;5088264;28;20055;-47
2020/12/12 11:37:06;;;;;;;4.78;1.50;;;10.50;99.90;;;;;;5088410;28;20111;-46
2020/12/12 11:47:40;;;;;;;4.60;1.63;;;10.50;99.90;;;;;;5087580;28;20035;-47
2020/12/12 11:50:06;;;;;;;4.43;1.48;;;10.50;99.90;;;;;;5087512;28;20040;-47
2020/12/12 11:52:45;;;;;;;5.38;2.05;;;10.50;99.90;;;;;;5088439;28;20036;-47
2020/12/12 11:55:11;;;;;;;5.47;1.83;;;10.40;99.90;;;;;;5087879;28;20024;-47
2020/12/12 11:57:40;;;;;;;6.88;1.60;;;10.40;99.90;;;;;;5081445;28;20110;-48
2020/12/12 12:00:11;;;;;;;4.80;1.50;;;10.30;99.90;;;;;;5067227;28;20090;-47
2020/12/12 12:02:40;;;;;;;5.93;1.35;;;10.40;99.90;;;;;;5067636;28;20379;-48
2020/12/12 12:05:05;;;;;;;8.15;1.75;;;10.40;99.90;;;;;;5067704;28;20028;-47
2020/12/12 12:07:35;;;;;;;8.63;1.50;;;10.50;99.90;;;;;;5049502;28;20033;-47
2020/12/12 12:10:54;;;;;;;4.57;1.55;;;10.50;99.90;;;;;;5067175;28;20085;-49
2020/12/12 12:12:51;;;;;;;9.45;1.92;;;10.50;99.90;;;;;;5041387;28;20040;-46
2020/12/12 12:15:17;;;;;;;2.63;1.30;;;10.50;99.90;;;;;;5067505;28;20082;-47
2020/12/12 12:17:43;;;;;;;4.88;1.20;;;10.50;99.90;;;;;;5067462;28;20486;-49
2020/12/12 12:20:10;;;;;;;6.80;1.27;;;10.50;99.90;;;;;;5067176;28;20056;-47
2020/12/12 12:22:35;;;;;;;6.47;1.80;;;10.50;99.90;;;;;;5067253;28;20049;-48
2020/12/12 12:25:01;;;;;;;4.72;1.58;;;10.50;99.90;;;;;;5067232;28;20063;-47
2020/12/12 12:27:27;;;;;;;5.80;1.48;;;10.60;99.90;;;;;;5067539;28;20052;-46
2020/12/12 12:29:52;;;;;;;6.05;1.73;;;10.70;99.90;;;;;;5067170;28;20090;-46
2020/12/12 12:32:18;;;;;;;5.88;1.25;;;10.80;99.90;;;;;;5067554;28;20119;-48
2020/12/12 12:34:44;;;;;;;4.13;1.23;;;11.00;99.90;;;;;;5067417;28;20386;-49
2020/12/12 12:37:10;;;;;;;5.43;1.63;;;11.10;99.90;;;;;;5049261;28;20028;-47
2020/12/12 12:39:35;;;;;;;5.70;1.58;;;11.40;99.90;;;;;;5067093;28;20027;-48
2020/12/12 12:42:04;;;;;;;9.00;1.98;;;11.80;99.90;;;;;;5067191;28;20071;-48
2020/12/12 12:44:31;;;;;;;7.70;1.50;;;11.90;99.90;;;;;;5067448;28;20039;-48
2020/12/12 12:46:56;;;;;;;4.32;1.75;;;11.90;99.90;;;;;;5051704;28;20035;-47
2020/12/12 12:49:22;;;;;;;5.32;1.58;;;11.90;99.90;;;;;;5067483;28;20093;-47
2020/12/12 12:51:49;;;;;;;11.15;1.90;;;11.90;99.90;;;;;;5067225;28;20033;-47
2020/12/12 12:54:15;;;;;;;6.53;1.58;;;11.80;99.90;;;;;;5067205;28;20024;-48
2020/12/12 12:56:41;;;;;;;3.13;1.42;;;12.20;99.90;;;;;;5068554;28;20090;-48